West Chicago, IL (60185)

02:25 AM CDT die 16o September, anno 2014 (GMT -0500)
Ingalton Hills Estates | Change Station
CLOSE
Current Station
Personal Weather Stations
Location: West Chicago, IL
Elevation: 780 ft
Nearby Weather Stations

Elev 780 ft 41.91 °N, 88.20 °W | Updated 3 seconds ago

Clear
Serena
45.0 °F
Feels Like 45 °F
N
0.0
Ventus Variabilis Ventus from Magis Auster quam Zephyrus
Gusts 0.0 mph

Hodie
High -- | Low -- °F
--% Chance of Precip.
Yesterday
High -- | Low -- °F
Precip. -- in
6:33 AM 7:00 PM
Waning Gibbous, 48% visible
Pressio 30.19 in
Visibilitas 6.0 milia passuum
Clouds Serena
Frigus Venti 45 °F
Frigus in quo Ros apparet 44 °F
Umor 97%
Rainfall 0.00 in
Snow Depth Not available.
UV 0 out of 12
Pollen 4.50 out of 12
Ozone Good
PM2.5 Moderate
Flu Activity Not available.
METAR KDPA 160652Z 27004KT 6SM BR CLR 07/06 A3019 RMK AO2 SLP224 T00720061

More Conditions Fewer Conditions

Pressio 30.19 in
Visibilitas 6.0 milia passuum
Clouds Serena
Frigus Venti 45 °F
Frigus in quo Ros apparet 44 °F
Umor 97%
Rainfall 0.00 in
Snow Depth Not available.
UV 0 out of 12
Pollen 4.50 out of 12
Ozone Good
PM2.5 Moderate
Flu Activity Not available.
METAR KDPA 160652Z 27004KT 6SM BR CLR 07/06 A3019 RMK AO2 SLP224 T00720061

More Conditions Fewer Conditions

10-Day Weather Forecast

Almanac

Astronomy

Sep. 16, 2014 Rise Set
Actual Time 6:33 AM CDT 7:00 PM CDT
Civil Twilight 6:05 AM CDT 7:28 PM CDT
Nautical Twilight 5:33 AM CDT 8:01 PM CDT
Astronomical Twilight 4:59 AM CDT 8:35 PM CDT
Moon Nulla Ortus Lunae 2:28 PM CDT
Length Of Visible Light 13h 22m
Length of Day
12h 26m
Tomorrow will be 2m 47s shorter.
Waning Gibbous, 48% of the Moon is Illuminated
Hodie
Waning Gibbous
Sep 24
New
Oct 1
First Quarter
Oct 8
Full
Oct 15
Last Quarter

Today's Extremes

State Highs State Lows

Community

WunderPhotos

Upload Photos

1,753,699 photos uploaded!

Nearby

Air Quality

  Air Quality AQ Index Pollutant
Yesterday Good
PM2.5
Yesterday Good
OZONE
Current Moderate
PM2.5
Current Good
OZONE
Die Martis Good
PM2.5
Die Mercurii Good
PM2.5
Die Jovis Moderate
PM2.5
Die Veneris Moderate
PM2.5

Snow Depth

Station Depth Elevation
No new snow has been reported.

Earthquake Activity

City Distance Mag. Time & Date
No recent earthquake activity has been reported nearby.
Minimum magnitude displayed is 2.5.

Coastal Water Temperatures

Locus Calor
No Stations Reporting

Nearby Weather Stations